Главная страница
METAR-TAF:

METAR-TAF

Аэропорты :

Beaver Creek, Юкон, Канада

широта: 62-25N, долгота: 140-52W, высота над уровнем моря: 649 м

Текущие метеонаблюдения

Эта сводка был подготовлена 6 часа и 38 минут назад, в 22:00 UTC
Ветер 8 Узел от западный-юго-западный, изменяющийся между юго-юго-восточный и западный
Температура 6°C
Влажность 22%
Давление 1015 hPa
Видимость: 48.3 км
Рассеянная облачность на высоте 5000 фута
Рассеянная облачность на высоте 9000 фута

METAR: CYXQ 262200Z 24008KT 150V280 30SM BKN050 BKN090 06/M14 A2997 RMK CU5AC2 CLIMAT 7.1/-1.0/0.0/LAST STFD OBS/NXT 271600Z SLP182

Время: 21:38 (04:38 UTC)


TAF: отсутствует

Метеонаблюдения и прогнозы для более 4000 аэропортов (сводки METAR и TAF).

Имеющиеся станции представлены на карте желтыми и красными точками.

Чтобы увидеть название станции, наведите на нее мышь.

Затем щелкните, чтобы увидеть метеонаблюдения и метеопрогнозы.

Управление картой: чтобы увеличить масштаб, щелкните зеленые кнопки с черным крестиком; чтобы уменьшить масштаб, щелкните зеленую кнопку с тире; для просмотра соседних карт щелкайте зеленые стрелки.


METAR-TAF: